Mesa.AZweather.com - Mesa, AZ
   Red Mountain Frwy and University Dr., El 1518 ft.
       --- Tuesday  August 2, 2022 ---
 
 High Temperature ..  106F at 15:08
 Low Temperature ...  82F at 05:45
 
 High Humidity .....  56% at 06:12
 Low Humidity ......  23% at 16:39
 
 High Barometer ....  29.99 at 07:39
 Low Barometer .....  29.83 at 17:43
 
 High Dew Point ....  66F at 03:58
 Low Dew Point .....  57F at 16:39
 
 Rainfall Total ....  0.00 in.
 
 High Wind Speed ...  ---
                     
 
 Time   Temp  Humi  Rain     Baro  DewPt  Wind
00:00,  90F, 42%, 0.00 in, 29.93, 63F, ---
00:30,  89F, 44%, 0.00 in, 29.93, 65F, ---
01:00,  89F, 45%, 0.00 in, 29.93, 65F, ---
01:30,  87F, 46%, 0.00 in, 29.94, 64F, ---
02:00,  86F, 48%, 0.00 in, 29.94, 64F, ---
02:30,  85F, 50%, 0.00 in, 29.93, 64F, ---
03:00,  85F, 52%, 0.00 in, 29.94, 65F, ---
03:30,  84F, 52%, 0.00 in, 29.93, 65F, ---
04:00,  84F, 54%, 0.00 in, 29.93, 66F, ---
04:30,  84F, 54%, 0.00 in, 29.93, 66F, ---
05:00,  84F, 53%, 0.00 in, 29.94, 65F, ---
05:30,  84F, 53%, 0.00 in, 29.95, 65F, ---
06:00,  82F, 55%, 0.00 in, 29.96, 65F, ---
06:30,  84F, 55%, 0.00 in, 29.97, 66F, ---
07:00,  85F, 52%, 0.00 in, 29.97, 65F, ---
07:30,  86F, 47%, 0.00 in, 29.97, 63F, ---
08:00,  88F, 44%, 0.00 in, 29.98, 63F, ---
08:30,  89F, 42%, 0.00 in, 29.98, 63F, ---
09:00,  91F, 39%, 0.00 in, 29.98, 63F, ---
09:30,  92F, 37%, 0.00 in, 29.98, 61F, ---
10:00,  95F, 36%, 0.00 in, 29.97, 64F, ---
10:30,  96F, 33%, 0.00 in, 29.97, 63F, ---
11:00,  98F, 31%, 0.00 in, 29.97, 63F, ---
11:30,  99F, 31%, 0.00 in, 29.96, 63F, ---
12:00,  101F, 30%, 0.00 in, 29.95, 63F, ---
12:30,  102F, 29%, 0.00 in, 29.94, 64F, ---
13:00,  102F, 28%, 0.00 in, 29.93, 63F, ---
13:30,  103F, 27%, 0.00 in, 29.91, 62F, ---
14:00,  104F, 27%, 0.00 in, 29.90, 63F, ---
14:30,  105F, 25%, 0.00 in, 29.89, 63F, ---
15:00,  105F, 24%, 0.00 in, 29.88, 62F, ---
15:30,  104F, 26%, 0.00 in, 29.87, 62F, ---
16:00,  104F, 24%, 0.00 in, 29.86, 60F, ---
16:30,  103F, 24%, 0.00 in, 29.85, 59F, ---
17:00,  102F, 24%, 0.00 in, 29.84, 59F, ---
17:30,  101F, 24%, 0.00 in, 29.84, 57F, ---
18:00,  100F, 25%, 0.00 in, 29.84, 58F, ---
18:30,  99F, 25%, 0.00 in, 29.84, 57F, ---
19:00,  98F, 27%, 0.00 in, 29.86, 59F, ---
19:30,  98F, 27%, 0.00 in, 29.85, 59F, ---
20:00,  97F, 28%, 0.00 in, 29.85, 58F, ---
20:30,  96F, 29%, 0.00 in, 29.86, 59F, ---
21:00,  95F, 29%, 0.00 in, 29.86, 58F, ---
21:30,  96F, 30%, 0.00 in, 29.86, 60F, ---
22:00,  95F, 30%, 0.00 in, 29.86, 59F, ---
22:30,  94F, 32%, 0.00 in, 29.86, 59F, ---
23:00,  92F, 33%, 0.00 in, 29.88, 58F, ---
23:30,  92F, 34%, 0.00 in, 29.88, 59F, ---
23:59,  90F, 36%, 0.00 in, 29.87, 59F, ---